Frenchboro, Maine
Current Conditions -  °F | °C
As of 8:15 PM on Saturday 22 Nov 2014 (Local Time) from KBHB Reporting Station
Overcast Overcast  
Wind Chill: 32°   Ceiling: 7000
Heat Index: 39°   Visibility: 10mi
Dew Point: 21°   Wind: 13mph
Humidity: 49%   Direction: 230°SW
Pressure: 29.93"   Gusts: 20mph
Location:  44.12°N, 68.36°W
Report Text: KBHB 230115Z AUTO 23011G17KT 10SM SCT050 BKN070 OVC090 04/M06 A2993 RMK AO1
Loading
Personal Weather Stations






























Interactive Weather Map New forecast layout! Learn more

10-Day Weather Forecast

Advertisements
Track Severe Weather on mobile